XGG weather

Gorom-Gorom Airport
Gorom-Gorom, Oudalan, Burkina Faso

Public forecast

Using degrees Celsius for public forecast. Weather courtesy of forecast.io.

Closest aviation weather report (METAR) to Gorom-Gorom Airport

Report is more than 6 hours old.

Closest report is Dori Airport, 27.6 nm (51.1 km) SSE. Retrieved 2009/09/21 17:00 UTC (10 years ago):

DFEE 211700Z 14002KT 9/9 FEW020 BKN260 34/21

Closest aviation forecast (TAF) to Gorom-Gorom Airport

Closest forecast is Gao Airport, 108.8 nm (201.5 km) N. Retrieved 2019-10-24 00:51 UTC (4 hours ago):

TAF TAF GAGO 232320Z 2400/2424 12008KT 8000 NSC